sensor_id;sensor_type;location;lat;lon;timestamp;pressure;altitude;pressure_sealevel;temperature;humidity
11099;BME280;12223;42.650;23.364;2023-03-26T00:02:22;94261.53;;;10.35;100.00
11099;BME280;12223;42.650;23.364;2023-03-26T00:04:49;94249.03;;;10.30;100.00
11099;BME280;12223;42.650;23.364;2023-03-26T00:07:17;94259.31;;;10.32;100.00
11099;BME280;12223;42.650;23.364;2023-03-26T00:09:44;94257.97;;;10.29;100.00
11099;BME280;12223;42.650;23.364;2023-03-26T00:12:11;94264.84;;;10.30;100.00
11099;BME280;12223;42.650;23.364;2023-03-26T00:14:38;94258.31;;;10.21;100.00
11099;BME280;12223;42.650;23.364;2023-03-26T00:17:05;94262.78;;;10.21;100.00
11099;BME280;12223;42.650;23.364;2023-03-26T00:19:34;94257.34;;;10.16;100.00
11099;BME280;12223;42.650;23.364;2023-03-26T00:22:01;94250.94;;;10.12;100.00
11099;BME280;12223;42.650;23.364;2023-03-26T00:24:28;94245.41;;;10.13;100.00
11099;BME280;12223;42.650;23.364;2023-03-26T00:26:55;94236.47;;;10.14;100.00
11099;BME280;12223;42.650;23.364;2023-03-26T00:29:24;94233.25;;;10.00;100.00
11099;BME280;12223;42.650;23.364;2023-03-26T00:31:52;94225.91;;;10.02;100.00
11099;BME280;12223;42.650;23.364;2023-03-26T00:34:19;94224.78;;;9.98;100.00
11099;BME280;12223;42.650;23.364;2023-03-26T00:36:48;94217.53;;;9.94;100.00
11099;BME280;12223;42.650;23.364;2023-03-26T00:39:18;94207.91;;;9.88;100.00
11099;BME280;12223;42.650;23.364;2023-03-26T00:41:46;94211.13;;;9.90;100.00
11099;BME280;12223;42.650;23.364;2023-03-26T00:44:12;94207.91;;;9.88;100.00
11099;BME280;12223;42.650;23.364;2023-03-26T00:46:39;94210.88;;;9.80;100.00
11099;BME280;12223;42.650;23.364;2023-03-26T00:49:06;94206.16;;;9.82;100.00
11099;BME280;12223;42.650;23.364;2023-03-26T00:51:35;94215.25;;;9.86;100.00
11099;BME280;12223;42.650;23.364;2023-03-26T00:54:04;94212.38;;;9.87;100.00
11099;BME280;12223;42.650;23.364;2023-03-26T00:56:32;94213.06;;;9.83;100.00
11099;BME280;12223;42.650;23.364;2023-03-26T00:58:59;94214.56;;;9.79;100.00
11099;BME280;12223;42.650;23.364;2023-03-26T01:01:27;94209.63;;;9.82;100.00
11099;BME280;12223;42.650;23.364;2023-03-26T01:03:56;94205.50;;;9.86;100.00
11099;BME280;12223;42.650;23.364;2023-03-26T01:06:26;94212.63;;;9.86;100.00
11099;BME280;12223;42.650;23.364;2023-03-26T01:08:58;94215.47;;;9.96;100.00
11099;BME280;12223;42.650;23.364;2023-03-26T01:11:31;94192.88;;;9.77;100.00
11099;BME280;12223;42.650;23.364;2023-03-26T01:14:00;94227.28;;;9.93;100.00
11099;BME280;12223;42.650;23.364;2023-03-26T01:16:37;94226.47;;;9.93;100.00
11099;BME280;12223;42.650;23.364;2023-03-26T01:19:10;94223.84;;;9.93;100.00
11099;BME280;12223;42.650;23.364;2023-03-26T01:21:38;94240.72;;;9.92;100.00
11099;BME280;12223;42.650;23.364;2023-03-26T01:24:08;94234.16;;;9.94;100.00
11099;BME280;12223;42.650;23.364;2023-03-26T01:26:57;94230.72;;;9.94;100.00
11099;BME280;12223;42.650;23.364;2023-03-26T01:29:34;94243.47;;;9.97;100.00
11099;BME280;12223;42.650;23.364;2023-03-26T01:32:11;94238.28;;;9.90;100.00
11099;BME280;12223;42.650;23.364;2023-03-26T01:34:49;94232.31;;;9.83;100.00
11099;BME280;12223;42.650;23.364;2023-03-26T01:37:22;94238.41;;;9.84;100.00
11099;BME280;12223;42.650;23.364;2023-03-26T01:39:55;94240.22;;;9.72;100.00
11099;BME280;12223;42.650;23.364;2023-03-26T01:42:30;94250.66;;;9.66;100.00
11099;BME280;12223;42.650;23.364;2023-03-26T01:45:04;94235.84;;;9.65;100.00
11099;BME280;12223;42.650;23.364;2023-03-26T01:47:33;94237.09;;;9.63;100.00
11099;BME280;12223;42.650;23.364;2023-03-26T01:50:01;94248.22;;;9.65;100.00
11099;BME280;12223;42.650;23.364;2023-03-26T01:52:28;94239.19;;;9.61;100.00
11099;BME280;12223;42.650;23.364;2023-03-26T01:54:57;94249.34;;;9.57;100.00
11099;BME280;12223;42.650;23.364;2023-03-26T01:57:33;94256.34;;;9.52;100.00
11099;BME280;12223;42.650;23.364;2023-03-26T02:00:15;94246.38;;;9.54;100.00
11099;BME280;12223;42.650;23.364;2023-03-26T02:02:51;94248.53;;;9.57;100.00
11099;BME280;12223;42.650;23.364;2023-03-26T02:05:25;94233.41;;;9.52;100.00
11099;BME280;12223;42.650;23.364;2023-03-26T02:07:59;94231.41;;;9.36;100.00
11099;BME280;12223;42.650;23.364;2023-03-26T02:10:33;94239.00;;;9.44;100.00
11099;BME280;12223;42.650;23.364;2023-03-26T02:13:01;94236.56;;;9.31;100.00
11099;BME280;12223;42.650;23.364;2023-03-26T02:15:28;94240.78;;;9.32;100.00
11099;BME280;12223;42.650;23.364;2023-03-26T02:17:55;94230.56;;;9.24;100.00
11099;BME280;12223;42.650;23.364;2023-03-26T02:20:24;94227.81;;;9.19;100.00
11099;BME280;12223;42.650;23.364;2023-03-26T02:22:54;94232.75;;;9.27;100.00
11099;BME280;12223;42.650;23.364;2023-03-26T02:25:22;94233.28;;;9.17;100.00
11099;BME280;12223;42.650;23.364;2023-03-26T02:27:51;94222.63;;;9.12;100.00
11099;BME280;12223;42.650;23.364;2023-03-26T02:30:21;94230.53;;;9.12;100.00
11099;BME280;12223;42.650;23.364;2023-03-26T02:32:50;94217.00;;;9.09;100.00
11099;BME280;12223;42.650;23.364;2023-03-26T02:35:18;94230.28;;;9.02;100.00
11099;BME280;12223;42.650;23.364;2023-03-26T02:37:45;94223.31;;;9.08;100.00
11099;BME280;12223;42.650;23.364;2023-03-26T02:40:16;94234.66;;;9.08;100.00
11099;BME280;12223;42.650;23.364;2023-03-26T02:42:43;94240.25;;;9.12;100.00
11099;BME280;12223;42.650;23.364;2023-03-26T02:45:13;94228.28;;;9.16;100.00
11099;BME280;12223;42.650;23.364;2023-03-26T02:47:49;94245.13;;;9.26;100.00
11099;BME280;12223;42.650;23.364;2023-03-26T02:50:21;94249.50;;;9.33;100.00
11099;BME280;12223;42.650;23.364;2023-03-26T02:52:49;94249.16;;;9.29;100.00
11099;BME280;12223;42.650;23.364;2023-03-26T02:55:16;94253.63;;;9.28;100.00
11099;BME280;12223;42.650;23.364;2023-03-26T02:57:42;94240.50;;;9.10;100.00
11099;BME280;12223;42.650;23.364;2023-03-26T03:00:10;94253.22;;;9.13;100.00
11099;BME280;12223;42.650;23.364;2023-03-26T03:02:45;94251.16;;;9.15;100.00
11099;BME280;12223;42.650;23.364;2023-03-26T03:05:14;94263.41;;;9.10;100.00
11099;BME280;12223;42.650;23.364;2023-03-26T03:07:42;94259.66;;;8.99;100.00
11099;BME280;12223;42.650;23.364;2023-03-26T03:10:11;94265.97;;;8.98;100.00
11099;BME280;12223;42.650;23.364;2023-03-26T03:12:38;94265.00;;;8.93;100.00
11099;BME280;12223;42.650;23.364;2023-03-26T03:15:06;94271.91;;;8.94;100.00
11099;BME280;12223;42.650;23.364;2023-03-26T03:17:33;94270.19;;;8.99;100.00
11099;BME280;12223;42.650;23.364;2023-03-26T03:20:04;94268.47;;;8.93;100.00
11099;BME280;12223;42.650;23.364;2023-03-26T03:22:33;94263.84;;;8.88;100.00
11099;BME280;12223;42.650;23.364;2023-03-26T03:25:00;94264.66;;;8.89;100.00
11099;BME280;12223;42.650;23.364;2023-03-26T03:27:27;94262.72;;;8.84;100.00
11099;BME280;12223;42.650;23.364;2023-03-26T03:29:56;94273.59;;;8.88;100.00
11099;BME280;12223;42.650;23.364;2023-03-26T03:32:23;94276.50;;;8.80;100.00
11099;BME280;12223;42.650;23.364;2023-03-26T03:34:52;94285.00;;;8.82;100.00
11099;BME280;12223;42.650;23.364;2023-03-26T03:37:20;94284.88;;;8.77;100.00
11099;BME280;12223;42.650;23.364;2023-03-26T03:46:31;94262.06;;;8.53;100.00
11099;BME280;12223;42.650;23.364;2023-03-26T03:48:58;94266.88;;;8.56;100.00
11099;BME280;12223;42.650;23.364;2023-03-26T03:51:24;94261.31;;;8.45;100.00
11099;BME280;12223;42.650;23.364;2023-03-26T03:53:52;94281.50;;;8.52;100.00
11099;BME280;12223;42.650;23.364;2023-03-26T03:56:20;94285.81;;;8.46;100.00
11099;BME280;12223;42.650;23.364;2023-03-26T03:58:48;94277.03;;;8.52;100.00
11099;BME280;12223;42.650;23.364;2023-03-26T04:01:16;94282.88;;;8.54;100.00
11099;BME280;12223;42.650;23.364;2023-03-26T04:03:43;94280.47;;;8.53;100.00
11099;BME280;12223;42.650;23.364;2023-03-26T04:06:10;94274.63;;;8.51;100.00
11099;BME280;12223;42.650;23.364;2023-03-26T04:08:37;94267.38;;;8.46;100.00
11099;BME280;12223;42.650;23.364;2023-03-26T04:11:06;94276.44;;;8.50;100.00
11099;BME280;12223;42.650;23.364;2023-03-26T04:13:32;94284.69;;;8.54;100.00
11099;BME280;12223;42.650;23.364;2023-03-26T04:15:59;94247.84;;;8.35;100.00
11099;BME280;12223;42.650;23.364;2023-03-26T04:18:26;94289.09;;;8.60;100.00
11099;BME280;12223;42.650;23.364;2023-03-26T04:20:54;94305.69;;;8.60;100.00
11099;BME280;12223;42.650;23.364;2023-03-26T04:23:24;94299.91;;;8.52;100.00
11099;BME280;12223;42.650;23.364;2023-03-26T04:25:53;94308.38;;;8.54;100.00
11099;BME280;12223;42.650;23.364;2023-03-26T04:28:26;94334.28;;;8.75;100.00
11099;BME280;12223;42.650;23.364;2023-03-26T04:30:55;94334.16;;;8.70;100.00
11099;BME280;12223;42.650;23.364;2023-03-26T04:33:25;94315.56;;;8.46;100.00
11099;BME280;12223;42.650;23.364;2023-03-26T04:35:53;94330.63;;;8.58;100.00
11099;BME280;12223;42.650;23.364;2023-03-26T04:38:21;94320.44;;;8.43;100.00
11099;BME280;12223;42.650;23.364;2023-03-26T04:40:48;94348.97;;;8.64;100.00
11099;BME280;12223;42.650;23.364;2023-03-26T04:43:15;94356.97;;;8.76;100.00
11099;BME280;12223;42.650;23.364;2023-03-26T04:45:44;94370.72;;;8.78;100.00
11099;BME280;12223;42.650;23.364;2023-03-26T04:48:12;94367.63;;;8.81;100.00
11099;BME280;12223;42.650;23.364;2023-03-26T04:50:40;94352.38;;;8.90;100.00
11099;BME280;12223;42.650;23.364;2023-03-26T04:53:10;94366.03;;;8.98;100.00
11099;BME280;12223;42.650;23.364;2023-03-26T04:55:41;94369.94;;;8.96;100.00
11099;BME280;12223;42.650;23.364;2023-03-26T04:58:10;94366.41;;;9.02;100.00
11099;BME280;12223;42.650;23.364;2023-03-26T05:00:38;94370.59;;;9.09;100.00
11099;BME280;12223;42.650;23.364;2023-03-26T05:03:08;94370.22;;;9.24;100.00
11099;BME280;12223;42.650;23.364;2023-03-26T05:05:36;94369.69;;;9.34;100.00
11099;BME280;12223;42.650;23.364;2023-03-26T05:08:03;94381.81;;;10.13;100.00
11099;BME280;12223;42.650;23.364;2023-03-26T05:10:30;94381.34;;;10.57;100.00
11099;BME280;12223;42.650;23.364;2023-03-26T05:12:57;94360.44;;;11.02;100.00
11099;BME280;12223;42.650;23.364;2023-03-26T05:15:24;94396.47;;;11.83;100.00
11099;BME280;12223;42.650;23.364;2023-03-26T05:17:50;94416.72;;;12.18;97.36
11099;BME280;12223;42.650;23.364;2023-03-26T05:20:23;94408.19;;;12.61;91.35
11099;BME280;12223;42.650;23.364;2023-03-26T05:25:37;94400.53;;;13.96;73.03
11099;BME280;12223;42.650;23.364;2023-03-26T05:28:04;94389.03;;;14.39;67.71
11099;BME280;12223;42.650;23.364;2023-03-26T05:30:31;94424.47;;;14.50;66.64
11099;BME280;12223;42.650;23.364;2023-03-26T05:32:57;94424.38;;;15.41;62.27
11099;BME280;12223;42.650;23.364;2023-03-26T05:35:26;94425.81;;;16.26;57.84
11099;BME280;12223;42.650;23.364;2023-03-26T05:37:53;94415.78;;;17.09;56.94
11099;BME280;12223;42.650;23.364;2023-03-26T05:40:19;94431.47;;;17.71;51.43
11099;BME280;12223;42.650;23.364;2023-03-26T05:42:47;94426.25;;;18.10;52.91
11099;BME280;12223;42.650;23.364;2023-03-26T05:45:15;94435.09;;;18.65;47.71
11099;BME280;12223;42.650;23.364;2023-03-26T05:47:42;94424.13;;;18.61;46.40
11099;BME280;12223;42.650;23.364;2023-03-26T05:50:10;94426.81;;;19.29;45.98
11099;BME280;12223;42.650;23.364;2023-03-26T05:52:38;94423.53;;;17.25;48.91
11099;BME280;12223;42.650;23.364;2023-03-26T05:55:05;94443.00;;;16.85;50.29
11099;BME280;12223;42.650;23.364;2023-03-26T05:57:32;94429.66;;;17.21;50.14
11099;BME280;12223;42.650;23.364;2023-03-26T05:59:59;94436.31;;;18.28;47.12
11099;BME280;12223;42.650;23.364;2023-03-26T06:02:26;94421.84;;;18.39;47.04
11099;BME280;12223;42.650;23.364;2023-03-26T06:04:53;94420.94;;;19.85;42.87
11099;BME280;12223;42.650;23.364;2023-03-26T06:07:21;94409.84;;;19.67;42.17
11099;BME280;12223;42.650;23.364;2023-03-26T06:09:49;94423.09;;;20.49;40.31
11099;BME280;12223;42.650;23.364;2023-03-26T06:12:16;94408.28;;;20.89;39.21
11099;BME280;12223;42.650;23.364;2023-03-26T06:14:43;94416.56;;;21.57;37.54
11099;BME280;12223;42.650;23.364;2023-03-26T06:17:11;94413.84;;;22.03;36.40
11099;BME280;12223;42.650;23.364;2023-03-26T06:19:38;94418.41;;;22.44;35.77
11099;BME280;12223;42.650;23.364;2023-03-26T06:22:05;94418.53;;;23.55;33.15
11099;BME280;12223;42.650;23.364;2023-03-26T06:24:32;94428.59;;;23.63;31.93
11099;BME280;12223;42.650;23.364;2023-03-26T06:27:00;94418.38;;;22.58;34.19
11099;BME280;12223;42.650;23.364;2023-03-26T06:29:27;94420.19;;;23.20;33.24
11099;BME280;12223;42.650;23.364;2023-03-26T06:31:54;94422.50;;;21.87;34.52
11099;BME280;12223;42.650;23.364;2023-03-26T06:34:21;94414.03;;;22.07;35.08
11099;BME280;12223;42.650;23.364;2023-03-26T06:36:47;94414.59;;;21.77;34.11
11099;BME280;12223;42.650;23.364;2023-03-26T06:39:17;94419.69;;;20.81;35.29
11099;BME280;12223;42.650;23.364;2023-03-26T06:41:44;94416.19;;;20.43;36.80
11099;BME280;12223;42.650;23.364;2023-03-26T06:44:12;94425.09;;;18.31;40.57
11099;BME280;12223;42.650;23.364;2023-03-26T06:46:38;94409.19;;;17.96;43.22
11099;BME280;12223;42.650;23.364;2023-03-26T06:49:05;94416.84;;;17.28;43.07
11099;BME280;12223;42.650;23.364;2023-03-26T06:51:32;94427.63;;;16.05;45.54
11099;BME280;12223;42.650;23.364;2023-03-26T06:53:59;94433.03;;;15.68;46.20
11099;BME280;12223;42.650;23.364;2023-03-26T06:56:26;94449.75;;;14.84;48.29
11099;BME280;12223;42.650;23.364;2023-03-26T06:58:52;94443.72;;;14.14;51.09
11099;BME280;12223;42.650;23.364;2023-03-26T07:01:21;94446.16;;;14.69;50.82
11099;BME280;12223;42.650;23.364;2023-03-26T07:03:47;94450.13;;;14.39;50.25
11099;BME280;12223;42.650;23.364;2023-03-26T07:06:14;94456.28;;;13.96;52.08
11099;BME280;12223;42.650;23.364;2023-03-26T07:08:41;94460.50;;;13.54;54.86
11099;BME280;12223;42.650;23.364;2023-03-26T07:11:08;94462.03;;;13.50;57.22
11099;BME280;12223;42.650;23.364;2023-03-26T07:13:35;94449.66;;;13.77;55.33
11099;BME280;12223;42.650;23.364;2023-03-26T07:16:07;94463.28;;;14.51;53.98
11099;BME280;12223;42.650;23.364;2023-03-26T07:18:37;94466.50;;;14.53;51.97
11099;BME280;12223;42.650;23.364;2023-03-26T07:21:04;94448.59;;;14.75;52.26
11099;BME280;12223;42.650;23.364;2023-03-26T07:23:32;94444.63;;;14.73;50.96
11099;BME280;12223;42.650;23.364;2023-03-26T07:25:59;94448.28;;;14.67;50.74
11099;BME280;12223;42.650;23.364;2023-03-26T07:28:37;94448.41;;;14.28;52.10
11099;BME280;12223;42.650;23.364;2023-03-26T07:31:16;94445.06;;;13.51;54.69
11099;BME280;12223;42.650;23.364;2023-03-26T07:33:53;94436.06;;;13.52;55.00
11099;BME280;12223;42.650;23.364;2023-03-26T07:36:30;94435.81;;;13.15;56.42
11099;BME280;12223;42.650;23.364;2023-03-26T07:39:15;94441.75;;;12.27;59.84
11099;BME280;12223;42.650;23.364;2023-03-26T07:41:48;94438.22;;;12.21;61.68
11099;BME280;12223;42.650;23.364;2023-03-26T07:44:34;94440.63;;;11.94;64.66
11099;BME280;12223;42.650;23.364;2023-03-26T07:47:16;94443.06;;;11.84;64.61
11099;BME280;12223;42.650;23.364;2023-03-26T07:49:48;94436.16;;;11.95;65.85
11099;BME280;12223;42.650;23.364;2023-03-26T07:52:16;94436.06;;;11.78;66.94
11099;BME280;12223;42.650;23.364;2023-03-26T07:54:43;94442.41;;;12.34;66.78
11099;BME280;12223;42.650;23.364;2023-03-26T07:57:14;94438.34;;;12.43;65.32
11099;BME280;12223;42.650;23.364;2023-03-26T07:59:49;94437.88;;;12.79;62.85
11099;BME280;12223;42.650;23.364;2023-03-26T08:02:46;94429.91;;;13.29;60.02
11099;BME280;12223;42.650;23.364;2023-03-26T08:05:22;94428.28;;;13.67;55.49
11099;BME280;12223;42.650;23.364;2023-03-26T08:08:01;94440.16;;;12.71;57.22
11099;BME280;12223;42.650;23.364;2023-03-26T08:10:34;94432.72;;;11.83;60.51
11099;BME280;12223;42.650;23.364;2023-03-26T08:13:13;94419.38;;;11.78;60.90
11099;BME280;12223;42.650;23.364;2023-03-26T08:15:46;94419.03;;;11.86;59.21
11099;BME280;12223;42.650;23.364;2023-03-26T08:18:25;94422.19;;;11.99;57.93
11099;BME280;12223;42.650;23.364;2023-03-26T08:20:59;94435.63;;;12.38;57.11
11099;BME280;12223;42.650;23.364;2023-03-26T08:23:32;94413.41;;;12.89;55.62
11099;BME280;12223;42.650;23.364;2023-03-26T08:26:07;94432.16;;;13.59;49.05
11099;BME280;12223;42.650;23.364;2023-03-26T08:28:52;94430.78;;;13.52;49.20
11099;BME280;12223;42.650;23.364;2023-03-26T08:31:27;94408.97;;;12.78;52.12
11099;BME280;12223;42.650;23.364;2023-03-26T08:33:57;94421.78;;;13.36;51.36
11099;BME280;12223;42.650;23.364;2023-03-26T08:36:26;94433.25;;;14.02;48.86
11099;BME280;12223;42.650;23.364;2023-03-26T08:38:54;94437.06;;;13.89;47.04
11099;BME280;12223;42.650;23.364;2023-03-26T08:44:30;94427.50;;;13.45;46.56
11099;BME280;12223;42.650;23.364;2023-03-26T08:50:45;94409.66;;;14.32;45.64
11099;BME280;12223;42.650;23.364;2023-03-26T08:53:37;94421.09;;;13.84;47.78
11099;BME280;12223;42.650;23.364;2023-03-26T08:56:15;94405.72;;;13.86;46.22
11099;BME280;12223;42.650;23.364;2023-03-26T08:59:13;94431.06;;;13.99;46.96
11099;BME280;12223;42.650;23.364;2023-03-26T09:02:24;94417.53;;;14.49;45.60
11099;BME280;12223;42.650;23.364;2023-03-26T09:05:19;94419.50;;;14.59;43.58
11099;BME280;12223;42.650;23.364;2023-03-26T09:08:12;94423.81;;;14.38;44.70
11099;BME280;12223;42.650;23.364;2023-03-26T09:10:54;94431.59;;;14.44;43.38
11099;BME280;12223;42.650;23.364;2023-03-26T09:25:56;94415.59;;;14.18;43.58
11099;BME280;12223;42.650;23.364;2023-03-26T09:32:05;94414.56;;;14.19;43.21
11099;BME280;12223;42.650;23.364;2023-03-26T09:34:55;94400.31;;;14.30;42.54
11099;BME280;12223;42.650;23.364;2023-03-26T09:37:33;94414.91;;;14.27;40.26
11099;BME280;12223;42.650;23.364;2023-03-26T09:40:15;94395.72;;;13.50;42.14
11099;BME280;12223;42.650;23.364;2023-03-26T09:42:48;94415.16;;;13.77;42.48
11099;BME280;12223;42.650;23.364;2023-03-26T09:45:46;94406.19;;;14.32;41.02
11099;BME280;12223;42.650;23.364;2023-03-26T09:48:42;94399.38;;;14.68;41.04
11099;BME280;12223;42.650;23.364;2023-03-26T09:51:34;94394.69;;;14.80;42.07
11099;BME280;12223;42.650;23.364;2023-03-26T09:54:36;94382.34;;;15.01;41.15
11099;BME280;12223;42.650;23.364;2023-03-26T09:57:13;94393.03;;;14.42;42.72
11099;BME280;12223;42.650;23.364;2023-03-26T10:00:02;94387.91;;;14.99;40.48
11099;BME280;12223;42.650;23.364;2023-03-26T10:02:51;94376.59;;;15.19;39.41
11099;BME280;12223;42.650;23.364;2023-03-26T10:05:54;94375.09;;;14.91;41.15
11099;BME280;12223;42.650;23.364;2023-03-26T10:08:31;94377.56;;;14.12;41.73
11099;BME280;12223;42.650;23.364;2023-03-26T10:11:08;94366.75;;;14.19;42.83
11099;BME280;12223;42.650;23.364;2023-03-26T10:13:46;94366.47;;;14.42;40.67
11099;BME280;12223;42.650;23.364;2023-03-26T10:16:21;94365.50;;;14.85;38.21
11099;BME280;12223;42.650;23.364;2023-03-26T10:18:58;94364.31;;;14.71;40.01
11099;BME280;12223;42.650;23.364;2023-03-26T10:21:39;94357.59;;;15.00;40.10
11099;BME280;12223;42.650;23.364;2023-03-26T10:24:16;94350.56;;;15.26;40.05
11099;BME280;12223;42.650;23.364;2023-03-26T10:26:58;94341.06;;;15.40;39.14
11099;BME280;12223;42.650;23.364;2023-03-26T10:29:52;94342.69;;;15.46;38.24
11099;BME280;12223;42.650;23.364;2023-03-26T10:32:29;94324.41;;;15.60;37.39
11099;BME280;12223;42.650;23.364;2023-03-26T10:35:10;94323.63;;;15.59;36.34
11099;BME280;12223;42.650;23.364;2023-03-26T10:37:49;94324.94;;;15.57;36.79
11099;BME280;12223;42.650;23.364;2023-03-26T10:40:25;94320.16;;;15.64;37.08
11099;BME280;12223;42.650;23.364;2023-03-26T10:43:13;94318.75;;;15.51;36.44
11099;BME280;12223;42.650;23.364;2023-03-26T10:46:02;94317.25;;;15.71;36.98
11099;BME280;12223;42.650;23.364;2023-03-26T10:51:44;94316.75;;;15.79;34.82
11099;BME280;12223;42.650;23.364;2023-03-26T10:54:23;94318.38;;;15.80;35.52
11099;BME280;12223;42.650;23.364;2023-03-26T10:56:53;94310.09;;;15.81;35.17
11099;BME280;12223;42.650;23.364;2023-03-26T10:59:21;94296.81;;;15.86;35.23
11099;BME280;12223;42.650;23.364;2023-03-26T11:01:59;94282.44;;;15.97;34.36
11099;BME280;12223;42.650;23.364;2023-03-26T11:04:35;94292.25;;;15.77;34.06
11099;BME280;12223;42.650;23.364;2023-03-26T11:07:13;94297.00;;;15.54;34.81
11099;BME280;12223;42.650;23.364;2023-03-26T11:09:51;94295.28;;;15.38;34.65
11099;BME280;12223;42.650;23.364;2023-03-26T11:12:25;94294.81;;;15.51;34.21
11099;BME280;12223;42.650;23.364;2023-03-26T11:15:05;94295.75;;;15.20;34.80
11099;BME280;12223;42.650;23.364;2023-03-26T11:17:45;94286.81;;;15.46;32.69
11099;BME280;12223;42.650;23.364;2023-03-26T11:20:18;94301.16;;;15.40;32.91
11099;BME280;12223;42.650;23.364;2023-03-26T11:22:57;94244.94;;;15.21;32.23
11099;BME280;12223;42.650;23.364;2023-03-26T11:25:36;94288.78;;;15.71;31.89
11099;BME280;12223;42.650;23.364;2023-03-26T11:28:20;94282.16;;;15.84;32.27
11099;BME280;12223;42.650;23.364;2023-03-26T11:30:56;94280.94;;;15.49;32.36
11099;BME280;12223;42.650;23.364;2023-03-26T11:33:27;94268.56;;;15.08;32.57
11099;BME280;12223;42.650;23.364;2023-03-26T11:36:00;94284.84;;;14.74;32.83
11099;BME280;12223;42.650;23.364;2023-03-26T11:38:31;94273.31;;;14.54;32.96
11099;BME280;12223;42.650;23.364;2023-03-26T11:41:02;94255.13;;;14.82;33.43
11099;BME280;12223;42.650;23.364;2023-03-26T11:43:33;94260.91;;;15.21;32.99
11099;BME280;12223;42.650;23.364;2023-03-26T11:46:02;94267.13;;;15.47;31.62
11099;BME280;12223;42.650;23.364;2023-03-26T11:48:31;94247.97;;;15.50;32.17
11099;BME280;12223;42.650;23.364;2023-03-26T11:51:06;94240.56;;;15.57;31.45
11099;BME280;12223;42.650;23.364;2023-03-26T11:53:35;94242.06;;;15.33;30.76
11099;BME280;12223;42.650;23.364;2023-03-26T11:56:08;94225.84;;;15.45;31.33
11099;BME280;12223;42.650;23.364;2023-03-26T11:58:44;94212.09;;;15.63;31.28
11099;BME280;12223;42.650;23.364;2023-03-26T12:01:16;94223.06;;;15.97;30.86
11099;BME280;12223;42.650;23.364;2023-03-26T12:03:55;94198.00;;;16.08;30.64
11099;BME280;12223;42.650;23.364;2023-03-26T12:06:25;94191.34;;;16.21;30.78
11099;BME280;12223;42.650;23.364;2023-03-26T12:08:54;94194.00;;;16.21;30.65
11099;BME280;12223;42.650;23.364;2023-03-26T12:11:23;94202.81;;;16.01;31.37
11099;BME280;12223;42.650;23.364;2023-03-26T12:13:57;94203.59;;;15.61;31.28
11099;BME280;12223;42.650;23.364;2023-03-26T12:16:25;94196.69;;;15.95;30.39
11099;BME280;12223;42.650;23.364;2023-03-26T12:19:00;94188.94;;;16.19;30.73
11099;BME280;12223;42.650;23.364;2023-03-26T12:21:43;94191.06;;;16.27;30.84
11099;BME280;12223;42.650;23.364;2023-03-26T12:24:24;94174.31;;;16.01;29.57
11099;BME280;12223;42.650;23.364;2023-03-26T12:26:56;94181.22;;;15.62;29.71
11099;BME280;12223;42.650;23.364;2023-03-26T12:29:27;94166.81;;;15.48;29.93
11099;BME280;12223;42.650;23.364;2023-03-26T12:31:55;94159.59;;;15.33;30.29
11099;BME280;12223;42.650;23.364;2023-03-26T12:34:28;94145.81;;;15.56;30.53
11099;BME280;12223;42.650;23.364;2023-03-26T12:37:01;94158.06;;;15.83;30.32
11099;BME280;12223;42.650;23.364;2023-03-26T12:39:32;94147.69;;;15.86;29.95
11099;BME280;12223;42.650;23.364;2023-03-26T12:42:00;94135.44;;;15.65;30.50
11099;BME280;12223;42.650;23.364;2023-03-26T12:44:29;94141.28;;;16.02;29.61
11099;BME280;12223;42.650;23.364;2023-03-26T12:47:12;94142.03;;;16.33;29.25
11099;BME280;12223;42.650;23.364;2023-03-26T12:49:40;94134.25;;;16.52;27.73
11099;BME280;12223;42.650;23.364;2023-03-26T12:52:23;94127.88;;;16.48;26.84
11099;BME280;12223;42.650;23.364;2023-03-26T12:54:57;94132.94;;;16.60;26.60
11099;BME280;12223;42.650;23.364;2023-03-26T12:57:32;94120.38;;;16.65;26.11
11099;BME280;12223;42.650;23.364;2023-03-26T13:00:18;94128.09;;;16.72;26.04
11099;BME280;12223;42.650;23.364;2023-03-26T13:03:08;94117.94;;;16.79;25.15
11099;BME280;12223;42.650;23.364;2023-03-26T13:06:00;94115.78;;;16.76;25.15
11099;BME280;12223;42.650;23.364;2023-03-26T13:08:44;94101.47;;;16.52;24.97
11099;BME280;12223;42.650;23.364;2023-03-26T13:11:23;94122.78;;;16.52;26.30
11099;BME280;12223;42.650;23.364;2023-03-26T13:14:02;94113.47;;;16.44;26.81
11099;BME280;12223;42.650;23.364;2023-03-26T13:16:35;94107.84;;;16.66;25.95
11099;BME280;12223;42.650;23.364;2023-03-26T13:19:09;94113.38;;;16.84;25.91
11099;BME280;12223;42.650;23.364;2023-03-26T13:21:47;94101.88;;;16.94;24.41
11099;BME280;12223;42.650;23.364;2023-03-26T13:24:29;94109.09;;;16.83;24.77
11099;BME280;12223;42.650;23.364;2023-03-26T13:27:09;94103.44;;;16.95;23.73
11099;BME280;12223;42.650;23.364;2023-03-26T13:29:47;94100.84;;;16.85;23.16
11099;BME280;12223;42.650;23.364;2023-03-26T13:32:25;94110.91;;;16.98;22.95
11099;BME280;12223;42.650;23.364;2023-03-26T13:35:09;94101.88;;;16.94;23.14
11099;BME280;12223;42.650;23.364;2023-03-26T13:37:44;94104.28;;;16.91;23.18
11099;BME280;12223;42.650;23.364;2023-03-26T13:40:27;94123.41;;;16.28;23.39
11099;BME280;12223;42.650;23.364;2023-03-26T13:43:16;94106.34;;;16.19;24.62
11099;BME280;12223;42.650;23.364;2023-03-26T13:45:53;94105.53;;;16.34;25.00
11099;BME280;12223;42.650;23.364;2023-03-26T13:48:26;94106.78;;;16.57;24.53
11099;BME280;12223;42.650;23.364;2023-03-26T13:51:01;94089.47;;;16.54;24.00
11099;BME280;12223;42.650;23.364;2023-03-26T13:53:36;94095.63;;;16.44;22.84
11099;BME280;12223;42.650;23.364;2023-03-26T13:56:09;94103.13;;;16.32;23.12